createdAt,value
2023-05-04T00:00:06.782Z,2.10
2023-05-04T00:02:34.991Z,1.43
2023-05-04T00:05:03.291Z,2.43
2023-05-04T00:07:30.945Z,1.90
2023-05-04T00:09:58.402Z,1.87
2023-05-04T00:12:27.114Z,1.83
2023-05-04T00:14:57.936Z,1.87
2023-05-04T00:17:25.852Z,2.30
2023-05-04T00:19:53.771Z,1.47
2023-05-04T00:22:21.716Z,1.67
2023-05-04T00:24:48.961Z,1.67
2023-05-04T00:27:16.577Z,1.87
2023-05-04T00:29:44.457Z,1.87
2023-05-04T00:32:12.373Z,1.90
2023-05-04T00:34:40.723Z,2.03
2023-05-04T00:37:10.862Z,2.07
2023-05-04T00:39:38.598Z,1.33
2023-05-04T00:42:06.217Z,1.73
2023-05-04T00:44:35.166Z,2.10
2023-05-04T00:47:04.257Z,1.57
2023-05-04T00:49:31.567Z,1.70
2023-05-04T00:52:02.070Z,1.63
2023-05-04T00:54:31.121Z,1.40
2023-05-04T00:56:58.401Z,1.57
2023-05-04T00:59:28.103Z,1.60
2023-05-04T01:01:55.561Z,1.83
2023-05-04T01:04:23.608Z,1.80
2023-05-04T01:06:58.602Z,1.47
2023-05-04T01:09:42.097Z,1.63
2023-05-04T01:12:19.869Z,1.70
2023-05-04T01:14:49.105Z,1.80
2023-05-04T01:17:16.758Z,2.30
2023-05-04T01:19:44.316Z,1.90
2023-05-04T01:22:12.202Z,1.53
2023-05-04T01:24:40.555Z,1.93
2023-05-04T01:27:21.680Z,1.60
2023-05-04T01:29:57.873Z,2.20
2023-05-04T01:32:28.773Z,1.77
2023-05-04T01:34:59.447Z,1.60
2023-05-04T01:37:27.298Z,1.60
2023-05-04T01:39:54.494Z,2.50
2023-05-04T01:42:21.690Z,1.83
2023-05-04T01:44:49.555Z,2.20
2023-05-04T01:47:17.320Z,2.20
2023-05-04T01:49:44.620Z,1.40
2023-05-04T01:52:12.406Z,1.97
2023-05-04T01:54:40.321Z,2.37
2023-05-04T01:57:08.030Z,1.70
2023-05-04T01:59:35.551Z,1.87
2023-05-04T02:02:08.829Z,1.83
2023-05-04T02:04:36.194Z,1.60
2023-05-04T02:07:03.139Z,1.43
2023-05-04T02:09:30.003Z,1.63
2023-05-04T02:11:57.433Z,1.80
2023-05-04T02:14:24.221Z,1.60
2023-05-04T02:16:52.392Z,2.13
2023-05-04T02:19:19.968Z,1.97
2023-05-04T02:21:48.310Z,1.53
2023-05-04T02:24:19.510Z,2.27
2023-05-04T02:26:46.958Z,1.93
2023-05-04T02:29:14.594Z,1.73
2023-05-04T02:31:41.962Z,1.70
2023-05-04T02:34:09.414Z,1.90
2023-05-04T02:36:37.189Z,1.67
2023-05-04T02:39:03.960Z,2.13
2023-05-04T02:41:31.462Z,2.20
2023-05-04T02:43:59.027Z,1.63
2023-05-04T02:46:27.123Z,2.10
2023-05-04T02:48:54.092Z,1.53
2023-05-04T02:51:22.026Z,1.90
2023-05-04T02:53:49.136Z,1.77
2023-05-04T02:56:17.228Z,2.10
2023-05-04T02:58:44.540Z,2.10
2023-05-04T03:01:12.227Z,1.90
2023-05-04T03:03:39.729Z,2.23
2023-05-04T03:06:06.997Z,2.30
2023-05-04T03:08:35.026Z,2.07
2023-05-04T03:11:02.650Z,1.90
2023-05-04T03:13:30.112Z,1.83
2023-05-04T03:15:57.054Z,2.03
2023-05-04T03:18:24.803Z,2.27
2023-05-04T03:20:51.765Z,1.80
2023-05-04T03:23:19.184Z,2.50
2023-05-04T03:25:46.674Z,2.40
2023-05-04T03:28:14.112Z,2.00
2023-05-04T03:30:42.120Z,2.00
2023-05-04T03:33:10.393Z,2.77
2023-05-04T03:35:38.268Z,2.83
2023-05-04T03:38:07.757Z,2.40
2023-05-04T03:40:35.425Z,2.80
2023-05-04T03:43:03.051Z,2.60
2023-05-04T03:45:31.222Z,2.50
2023-05-04T03:47:59.082Z,2.40
2023-05-04T03:50:26.885Z,2.50
2023-05-04T03:52:54.509Z,2.17
2023-05-04T03:55:22.390Z,2.13
2023-05-04T03:57:50.438Z,1.90
2023-05-04T04:00:18.179Z,2.37
2023-05-04T04:02:49.306Z,1.97
2023-05-04T04:05:16.856Z,2.40
2023-05-04T04:07:44.918Z,2.20
2023-05-04T04:10:12.733Z,2.47
2023-05-04T04:12:40.404Z,2.70
2023-05-04T04:15:08.103Z,2.47
2023-05-04T04:17:36.004Z,2.57
2023-05-04T04:20:05.003Z,1.80
2023-05-04T04:22:32.568Z,2.00
2023-05-04T04:25:00.291Z,1.80
2023-05-04T04:27:28.044Z,2.60
2023-05-04T04:29:55.142Z,2.37
2023-05-04T04:32:23.355Z,2.10
2023-05-04T04:34:51.046Z,2.47
2023-05-04T04:37:19.087Z,2.07
2023-05-04T04:39:46.253Z,2.30
2023-05-04T04:42:13.991Z,2.00
2023-05-04T04:44:42.027Z,1.97
2023-05-04T04:47:09.951Z,2.60
2023-05-04T04:49:38.150Z,2.10
2023-05-04T04:52:06.178Z,2.20
2023-05-04T04:54:34.333Z,2.67
2023-05-04T04:57:02.539Z,2.70
2023-05-04T04:59:30.479Z,2.10
2023-05-04T05:01:58.066Z,2.70
2023-05-04T05:04:25.418Z,2.30
2023-05-04T05:06:54.485Z,2.30
2023-05-04T05:09:21.552Z,2.63
2023-05-04T05:11:48.933Z,2.67
2023-05-04T05:14:15.865Z,2.20
2023-05-04T05:16:43.478Z,2.80
2023-05-04T05:19:10.325Z,2.47
2023-05-04T05:21:37.999Z,3.00
2023-05-04T05:24:05.915Z,2.30
2023-05-04T05:26:33.925Z,2.40
2023-05-04T05:29:02.237Z,2.90
2023-05-04T05:31:29.788Z,2.70
2023-05-04T05:33:56.943Z,2.70
2023-05-04T05:36:24.385Z,3.60
2023-05-04T05:38:52.693Z,2.73
2023-05-04T05:41:20.517Z,2.60
2023-05-04T05:43:49.564Z,2.43
2023-05-04T05:46:17.114Z,2.30
2023-05-04T05:48:44.735Z,2.77
2023-05-04T05:51:11.815Z,2.73
2023-05-04T05:53:39.185Z,2.73
2023-05-04T05:56:06.943Z,2.50
2023-05-04T05:58:36.965Z,3.40
2023-05-04T06:01:05.351Z,2.90
2023-05-04T06:03:33.065Z,3.17
2023-05-04T06:06:01.007Z,2.90
2023-05-04T06:08:28.300Z,3.40
2023-05-04T06:10:56.453Z,3.10
2023-05-04T06:13:23.503Z,3.03
2023-05-04T06:15:55.341Z,2.80
2023-05-04T06:18:22.693Z,2.60
2023-05-04T06:20:49.759Z,2.77
2023-05-04T06:23:17.902Z,2.80
2023-05-04T06:25:46.681Z,2.53
2023-05-04T06:28:14.350Z,2.53
2023-05-04T06:30:41.838Z,2.77
2023-05-04T06:33:09.333Z,2.60
2023-05-04T06:35:36.958Z,2.87
2023-05-04T06:38:04.315Z,2.63
2023-05-04T06:40:32.359Z,2.60
2023-05-04T06:42:59.370Z,2.50
2023-05-04T06:45:26.316Z,2.13
2023-05-04T06:47:54.444Z,2.27
2023-05-04T06:50:24.372Z,3.37
2023-05-04T06:52:53.042Z,2.20
2023-05-04T06:55:20.302Z,2.30
2023-05-04T06:57:47.968Z,2.27
2023-05-04T07:00:15.887Z,3.40
2023-05-04T07:02:44.227Z,2.90
2023-05-04T07:05:12.150Z,2.23
2023-05-04T07:07:40.191Z,2.83
2023-05-04T07:10:08.373Z,3.10
2023-05-04T07:12:36.307Z,2.53
2023-05-04T07:15:03.462Z,2.20
2023-05-04T07:17:32.834Z,2.50
2023-05-04T07:20:03.585Z,2.33
2023-05-04T07:22:35.094Z,2.20
2023-05-04T07:25:03.593Z,2.50
2023-05-04T07:27:31.108Z,2.57
2023-05-04T07:29:57.832Z,2.17
2023-05-04T07:32:25.333Z,2.60
2023-05-04T07:34:53.059Z,2.23
2023-05-04T07:37:21.121Z,2.70
2023-05-04T07:39:49.086Z,2.60
2023-05-04T07:42:16.792Z,2.57
2023-05-04T07:44:44.389Z,3.70
2023-05-04T07:47:11.136Z,2.87
2023-05-04T07:49:39.418Z,2.60
2023-05-04T07:52:07.076Z,3.27
2023-05-04T07:54:34.890Z,2.70
2023-05-04T07:57:05.692Z,2.63
2023-05-04T07:59:33.757Z,2.27
2023-05-04T08:02:01.391Z,2.87
2023-05-04T08:04:29.248Z,3.87
2023-05-04T08:06:56.998Z,2.47
2023-05-04T08:09:23.789Z,2.50
2023-05-04T08:11:51.887Z,3.00
2023-05-04T08:14:19.465Z,2.73
2023-05-04T08:16:47.946Z,2.53
2023-05-04T08:19:15.196Z,3.00
2023-05-04T08:21:42.875Z,2.60
2023-05-04T08:24:11.307Z,3.13
2023-05-04T08:26:39.435Z,2.60
2023-05-04T08:29:08.253Z,2.83
2023-05-04T08:31:48.039Z,3.23
2023-05-04T08:34:14.802Z,3.20
2023-05-04T08:36:42.279Z,3.07
2023-05-04T08:39:12.950Z,3.30
2023-05-04T08:41:44.098Z,3.47
2023-05-04T08:44:12.320Z,3.47
2023-05-04T08:46:41.265Z,3.43
2023-05-04T08:49:08.556Z,3.40
2023-05-04T08:51:37.520Z,3.10
2023-05-04T08:54:09.524Z,3.50
2023-05-04T08:56:38.797Z,3.17
2023-05-04T08:59:08.151Z,3.40
2023-05-04T09:01:38.345Z,3.83
2023-05-04T09:04:06.835Z,3.73
2023-05-04T09:06:34.114Z,3.90
2023-05-04T09:09:02.005Z,3.93
2023-05-04T09:11:29.533Z,3.70
2023-05-04T09:13:57.158Z,3.80
2023-05-04T09:16:33.295Z,3.10
2023-05-04T09:19:00.384Z,3.43
2023-05-04T09:21:31.110Z,4.00
2023-05-04T09:23:58.266Z,4.17
2023-05-04T09:26:32.262Z,4.30
2023-05-04T09:29:15.483Z,3.43
2023-05-04T09:31:47.330Z,3.30
2023-05-04T09:34:15.118Z,3.83
2023-05-04T09:36:42.334Z,3.50
2023-05-04T09:39:13.367Z,3.37
2023-05-04T09:41:40.564Z,3.23
2023-05-04T09:44:18.386Z,3.73
2023-05-04T09:46:55.591Z,3.37
2023-05-04T09:49:32.729Z,4.10
2023-05-04T09:52:02.646Z,3.77
2023-05-04T09:54:38.974Z,3.67
2023-05-04T09:57:12.098Z,4.00
2023-05-04T09:59:39.937Z,4.30
2023-05-04T10:02:21.853Z,3.90
2023-05-04T10:04:51.664Z,3.93
2023-05-04T10:07:19.206Z,4.63
2023-05-04T10:09:48.642Z,4.50
2023-05-04T10:12:15.431Z,3.53
2023-05-04T10:14:46.711Z,4.40
2023-05-04T10:17:21.239Z,4.10
2023-05-04T10:20:29.294Z,3.70
2023-05-04T10:23:08.011Z,3.50
2023-05-04T10:25:57.306Z,4.07
2023-05-04T10:29:08.048Z,3.53
2023-05-04T10:31:42.211Z,4.63
2023-05-04T10:34:09.764Z,3.77
2023-05-04T10:36:41.568Z,2.70
2023-05-04T10:39:22.209Z,3.20
2023-05-04T10:42:07.882Z,3.17
2023-05-04T10:44:36.347Z,3.60
2023-05-04T10:47:05.789Z,2.80
2023-05-04T10:49:36.498Z,3.40
2023-05-04T10:52:16.300Z,3.17
2023-05-04T10:54:44.104Z,3.03
2023-05-04T10:57:17.565Z,3.07
2023-05-04T10:59:57.671Z,2.77
2023-05-04T11:02:25.599Z,3.60
2023-05-04T11:05:04.409Z,2.93
2023-05-04T11:07:38.872Z,2.70
2023-05-04T11:10:21.080Z,2.43
2023-05-04T11:12:48.013Z,3.53
2023-05-04T11:15:14.833Z,2.00
2023-05-04T11:17:48.787Z,2.33
2023-05-04T11:20:23.665Z,2.70
2023-05-04T11:22:50.700Z,2.63
2023-05-04T11:25:17.887Z,2.23
2023-05-04T11:27:49.207Z,2.90
2023-05-04T11:30:17.267Z,2.60
2023-05-04T11:32:46.700Z,2.40
2023-05-04T11:35:25.078Z,2.80
2023-05-04T11:37:52.036Z,2.70
2023-05-04T11:40:21.893Z,2.23
2023-05-04T11:42:50.041Z,1.80
2023-05-04T11:45:23.016Z,2.00
2023-05-04T11:47:51.357Z,1.87
2023-05-04T11:50:20.573Z,2.10
2023-05-04T11:52:48.029Z,2.40
2023-05-04T11:55:28.987Z,2.43
2023-05-04T11:58:05.943Z,3.27
2023-05-04T12:00:49.917Z,2.50
2023-05-04T12:03:43.808Z,2.23
2023-05-04T12:06:18.836Z,2.43
2023-05-04T12:08:45.668Z,3.10
2023-05-04T12:11:25.676Z,2.60
2023-05-04T12:14:07.490Z,2.33
2023-05-04T12:16:34.639Z,2.10
2023-05-04T12:19:03.575Z,1.83
2023-05-04T12:21:30.471Z,2.10
2023-05-04T12:24:00.380Z,2.53
2023-05-04T12:26:27.912Z,2.70
2023-05-04T12:28:54.699Z,2.17
2023-05-04T12:31:23.706Z,2.33
2023-05-04T12:33:51.918Z,2.37
2023-05-04T12:36:18.885Z,2.40
2023-05-04T12:38:46.228Z,2.67
2023-05-04T12:41:13.002Z,2.33
2023-05-04T12:43:40.352Z,2.10
2023-05-04T12:46:07.535Z,2.70
2023-05-04T12:48:34.464Z,2.20
2023-05-04T12:51:03.936Z,2.23
2023-05-04T12:53:32.168Z,2.50
2023-05-04T12:56:00.853Z,2.67
2023-05-04T12:58:28.334Z,2.20
2023-05-04T13:00:56.353Z,2.43
2023-05-04T13:03:23.452Z,2.40
2023-05-04T13:05:50.500Z,2.37
2023-05-04T13:08:18.380Z,2.00
2023-05-04T13:10:46.380Z,2.33
2023-05-04T13:13:15.492Z,2.40
2023-05-04T13:15:42.753Z,2.67
2023-05-04T13:18:09.606Z,2.77
2023-05-04T13:20:36.465Z,4.20
2023-05-04T13:23:03.188Z,5.10
2023-05-04T13:25:29.908Z,2.90
2023-05-04T13:27:58.789Z,1.98
2023-05-04T13:30:26.300Z,2.22
2023-05-04T13:32:53.174Z,3.10
2023-05-04T13:35:20.045Z,3.88
2023-05-04T13:37:46.994Z,2.20
2023-05-04T13:40:14.695Z,2.67
2023-05-04T13:42:42.209Z,1.70
2023-05-04T13:45:09.874Z,2.47
2023-05-04T13:47:38.321Z,2.75
2023-05-04T13:50:06.540Z,1.88
2023-05-04T13:52:34.253Z,2.78
2023-05-04T13:55:02.020Z,2.50
2023-05-04T13:57:30.198Z,2.30
2023-05-04T14:00:07.253Z,2.35
2023-05-04T14:02:35.983Z,2.17
2023-05-04T14:05:04.826Z,2.30
2023-05-04T14:07:34.847Z,2.60
2023-05-04T14:10:02.805Z,1.95
2023-05-04T14:12:30.705Z,2.22
2023-05-04T14:14:59.741Z,2.33
2023-05-04T14:17:26.893Z,2.20
2023-05-04T14:19:54.040Z,2.30
2023-05-04T14:22:21.263Z,1.93
2023-05-04T14:24:49.899Z,2.37
2023-05-04T14:27:17.830Z,2.77
2023-05-04T14:29:47.718Z,2.50
2023-05-04T14:32:15.797Z,2.60
2023-05-04T14:34:43.263Z,2.63
2023-05-04T14:37:10.493Z,2.40
2023-05-04T14:39:39.388Z,2.40
2023-05-04T14:42:06.970Z,1.77
2023-05-04T14:44:34.288Z,2.17
2023-05-04T14:47:04.714Z,2.40
2023-05-04T14:49:37.223Z,2.17
2023-05-04T14:52:05.784Z,1.90
2023-05-04T14:54:33.325Z,2.10
2023-05-04T14:57:01.219Z,2.10
2023-05-04T14:59:28.514Z,1.83
2023-05-04T15:01:57.532Z,3.00
2023-05-04T15:04:25.072Z,2.77
2023-05-04T15:06:52.995Z,1.97
2023-05-04T15:09:19.971Z,2.23
2023-05-04T15:11:50.277Z,2.70
2023-05-04T15:14:21.541Z,2.10
2023-05-04T15:16:48.781Z,2.50
2023-05-04T15:19:16.057Z,2.50
2023-05-04T15:21:43.567Z,1.90
2023-05-04T15:24:10.654Z,2.20
2023-05-04T15:26:38.209Z,2.33
2023-05-04T15:29:07.010Z,2.50
2023-05-04T15:31:34.500Z,2.30
2023-05-04T15:34:01.897Z,1.97
2023-05-04T15:36:30.966Z,2.30
2023-05-04T15:38:59.304Z,1.93
2023-05-04T15:41:27.613Z,1.70
2023-05-04T15:43:54.404Z,2.50
2023-05-04T15:46:21.724Z,2.10
2023-05-04T15:48:49.654Z,2.03
2023-05-04T15:51:16.596Z,2.10
2023-05-04T15:53:43.568Z,2.03
2023-05-04T15:56:13.211Z,1.63
2023-05-04T15:58:40.001Z,4.10
2023-05-04T16:01:09.371Z,2.50
2023-05-04T16:03:38.045Z,2.50
2023-05-04T16:06:05.612Z,2.57
2023-05-04T16:08:32.573Z,2.33
2023-05-04T16:10:59.348Z,2.30
2023-05-04T16:13:26.172Z,2.17
2023-05-04T16:15:53.368Z,2.77
2023-05-04T16:18:20.666Z,3.30
2023-05-04T16:20:48.196Z,2.40
2023-05-04T16:23:16.738Z,2.10
2023-05-04T16:25:44.003Z,2.23
2023-05-04T16:28:11.103Z,2.60
2023-05-04T16:30:38.060Z,2.50
2023-05-04T16:33:05.475Z,2.40
2023-05-04T16:35:32.445Z,2.93
2023-05-04T16:37:59.471Z,2.33
2023-05-04T16:40:26.679Z,3.20
2023-05-04T16:42:53.573Z,2.20
2023-05-04T16:45:20.609Z,1.77
2023-05-04T16:47:47.430Z,2.50
2023-05-04T16:50:14.660Z,4.20
2023-05-04T16:52:41.575Z,2.90
2023-05-04T16:55:11.777Z,2.40
2023-05-04T16:57:39.256Z,3.60
2023-05-04T17:00:07.275Z,2.23
2023-05-04T17:02:34.778Z,3.33
2023-05-04T17:05:01.901Z,2.73
2023-05-04T17:07:28.813Z,2.60
2023-05-04T17:09:55.639Z,3.10
2023-05-04T17:12:23.394Z,5.80
2023-05-04T17:14:50.215Z,2.73
2023-05-04T17:17:16.926Z,2.93
2023-05-04T17:19:43.671Z,2.77
2023-05-04T17:22:11.193Z,3.97
2023-05-04T17:24:38.151Z,3.73
2023-05-04T17:27:04.922Z,2.50
2023-05-04T17:29:31.708Z,3.37
2023-05-04T17:31:58.580Z,2.60
2023-05-04T17:34:25.519Z,2.53
2023-05-04T17:36:52.277Z,2.70
2023-05-04T17:39:18.984Z,2.70
2023-05-04T17:41:49.106Z,2.70
2023-05-04T17:44:16.413Z,2.73
2023-05-04T17:46:43.573Z,2.60
2023-05-04T17:49:10.790Z,2.80
2023-05-04T17:51:37.487Z,2.77
2023-05-04T17:54:04.281Z,2.57
2023-05-04T17:56:31.027Z,2.90
2023-05-04T17:58:57.803Z,3.00
2023-05-04T18:01:24.554Z,2.60
2023-05-04T18:03:51.844Z,2.57
2023-05-04T18:06:19.710Z,2.80
2023-05-04T18:08:46.480Z,2.63
2023-05-04T18:11:13.332Z,6.40
2023-05-04T18:13:40.101Z,3.33
2023-05-04T18:16:07.023Z,2.77
2023-05-04T18:18:33.682Z,3.27
2023-05-04T18:21:00.846Z,3.47
2023-05-04T18:23:27.616Z,3.33
2023-05-04T18:25:54.352Z,2.93
2023-05-04T18:28:21.179Z,2.80
2023-05-04T18:30:47.997Z,3.30
2023-05-04T18:33:14.748Z,2.17
2023-05-04T18:35:41.863Z,2.93
2023-05-04T18:38:08.634Z,3.27
2023-05-04T18:40:35.478Z,3.17
2023-05-04T18:43:02.332Z,3.00
2023-05-04T18:45:29.067Z,2.60
2023-05-04T18:47:55.878Z,2.80
2023-05-04T18:50:22.664Z,4.00
2023-05-04T18:52:49.322Z,3.60
2023-05-04T18:55:16.022Z,3.50
2023-05-04T18:57:43.014Z,3.10
2023-05-04T19:00:11.603Z,6.20
2023-05-04T19:02:38.404Z,2.30
2023-05-04T19:05:05.578Z,2.73
2023-05-04T19:07:32.272Z,2.87
2023-05-04T19:09:59.047Z,3.10
2023-05-04T19:12:25.738Z,2.77
2023-05-04T19:14:52.930Z,3.00
2023-05-04T19:17:19.671Z,2.63
2023-05-04T19:19:46.437Z,3.30
2023-05-04T19:22:15.375Z,2.80
2023-05-04T19:24:42.245Z,2.83
2023-05-04T19:27:09.496Z,2.27
2023-05-04T19:29:36.410Z,3.17
2023-05-04T19:32:12.037Z,2.97
2023-05-04T19:34:46.962Z,3.63
2023-05-04T19:37:13.690Z,3.17
2023-05-04T19:39:40.555Z,2.90
2023-05-04T19:42:07.344Z,2.70
2023-05-04T19:44:34.153Z,3.00
2023-05-04T19:47:01.009Z,3.27
2023-05-04T19:49:27.792Z,3.07
2023-05-04T19:51:54.600Z,3.67
2023-05-04T19:54:21.320Z,2.90
2023-05-04T19:56:48.048Z,3.23
2023-05-04T19:59:14.727Z,3.30
2023-05-04T20:01:41.573Z,3.17
2023-05-04T20:04:08.380Z,3.67
2023-05-04T20:06:36.514Z,3.30
2023-05-04T20:09:03.935Z,2.60
2023-05-04T20:11:31.136Z,3.30
2023-05-04T20:13:57.986Z,3.63
2023-05-04T20:16:24.819Z,3.27
2023-05-04T20:18:51.503Z,3.33
2023-05-04T20:21:18.566Z,3.40
2023-05-04T20:23:45.438Z,3.40
2023-05-04T20:26:12.424Z,3.43
2023-05-04T20:28:39.133Z,3.40
2023-05-04T20:31:07.536Z,3.10
2023-05-04T20:33:34.270Z,3.17
2023-05-04T20:36:01.073Z,2.90
2023-05-04T20:38:27.769Z,3.43
2023-05-04T20:40:54.968Z,3.53
2023-05-04T20:43:21.689Z,3.50
2023-05-04T20:45:48.447Z,3.00
2023-05-04T20:48:15.243Z,3.17
2023-05-04T20:50:42.698Z,3.50
2023-05-04T20:53:09.395Z,2.87
2023-05-04T20:55:36.191Z,3.43
2023-05-04T20:58:02.982Z,3.50
2023-05-04T21:00:30.606Z,3.37
2023-05-04T21:02:58.704Z,3.50
2023-05-04T21:05:25.610Z,3.33
2023-05-04T21:07:52.503Z,3.60
2023-05-04T21:10:20.699Z,3.40
2023-05-04T21:12:47.577Z,3.73
2023-05-04T21:15:14.407Z,3.70
2023-05-04T21:17:41.189Z,3.80
2023-05-04T21:20:09.261Z,3.20
2023-05-04T21:22:36.333Z,3.40
2023-05-04T21:25:03.968Z,2.87
2023-05-04T21:27:30.763Z,4.33
2023-05-04T21:29:57.770Z,3.40
2023-05-04T21:32:24.601Z,3.63
2023-05-04T21:34:55.295Z,3.67
2023-05-04T21:37:22.199Z,3.97
2023-05-04T21:39:54.311Z,3.87
2023-05-04T21:42:21.628Z,3.23
2023-05-04T21:44:56.650Z,3.37
2023-05-04T21:47:24.338Z,3.33
2023-05-04T21:49:54.202Z,3.70
2023-05-04T21:52:21.151Z,4.60
2023-05-04T21:54:48.083Z,3.40
2023-05-04T21:57:15.315Z,3.67
2023-05-04T21:59:42.040Z,3.13
2023-05-04T22:02:09.827Z,3.57
2023-05-04T22:04:36.769Z,3.20
2023-05-04T22:07:03.573Z,2.97
2023-05-04T22:09:30.264Z,3.13
2023-05-04T22:11:56.964Z,3.60
2023-05-04T22:14:23.696Z,3.40
2023-05-04T22:16:50.529Z,3.30
2023-05-04T22:19:17.548Z,3.50
2023-05-04T22:21:44.245Z,2.90
2023-05-04T22:24:10.974Z,3.53
2023-05-04T22:26:37.774Z,3.50
2023-05-04T22:29:04.427Z,3.60
2023-05-04T22:31:31.190Z,3.40
2023-05-04T22:33:57.979Z,3.30
2023-05-04T22:36:24.708Z,4.03
2023-05-04T22:38:52.273Z,3.90
2023-05-04T22:41:19.332Z,3.47
2023-05-04T22:43:46.022Z,4.67
2023-05-04T22:46:16.963Z,3.43
2023-05-04T22:48:46.727Z,4.40
2023-05-04T22:51:14.404Z,3.70
2023-05-04T22:53:41.254Z,3.97
2023-05-04T22:56:08.419Z,4.43
2023-05-04T22:58:35.543Z,3.50
2023-05-04T23:01:02.969Z,3.47
2023-05-04T23:03:29.843Z,3.57
2023-05-04T23:05:59.962Z,4.10
2023-05-04T23:08:26.698Z,4.10
2023-05-04T23:10:53.377Z,3.33
2023-05-04T23:13:20.123Z,3.80
2023-05-04T23:15:47.071Z,3.90
2023-05-04T23:18:13.949Z,3.63
2023-05-04T23:20:40.966Z,3.80
2023-05-04T23:23:07.752Z,4.50
2023-05-04T23:25:34.580Z,3.93
2023-05-04T23:28:02.081Z,3.50
2023-05-04T23:30:29.624Z,3.50
2023-05-04T23:32:58.102Z,4.33
2023-05-04T23:35:27.060Z,3.80
2023-05-04T23:37:55.046Z,3.77
2023-05-04T23:40:22.523Z,3.50
2023-05-04T23:42:53.630Z,3.60
2023-05-04T23:45:21.208Z,4.17
2023-05-04T23:47:48.722Z,3.10
2023-05-04T23:50:19.362Z,3.33
2023-05-04T23:52:46.568Z,4.53
2023-05-04T23:55:14.604Z,3.90
2023-05-04T23:57:44.741Z,4.10
